createdAt,value
2018-09-30T00:01:59.502Z,5.40
2018-09-30T00:04:27.784Z,5.10
2018-09-30T00:06:56.365Z,5.27
2018-09-30T00:09:30.512Z,4.70
2018-09-30T00:12:01.430Z,4.97
2018-09-30T00:14:29.961Z,5.73
2018-09-30T00:16:58.791Z,5.13
2018-09-30T00:19:27.140Z,5.57
2018-09-30T00:21:55.642Z,4.67
2018-09-30T00:24:29.327Z,4.70
2018-09-30T00:27:28.336Z,5.00
2018-09-30T00:29:56.765Z,4.83
2018-09-30T00:32:25.078Z,4.87
2018-09-30T00:34:53.296Z,5.07
2018-09-30T00:37:21.731Z,4.60
2018-09-30T00:39:50.098Z,4.97
2018-09-30T00:42:18.408Z,5.17
2018-09-30T00:44:46.693Z,5.50
2018-09-30T00:47:15.094Z,4.93
2018-09-30T00:49:43.410Z,5.30
2018-09-30T00:52:11.777Z,5.43
2018-09-30T00:54:40.204Z,5.00
2018-09-30T00:57:08.490Z,4.90
2018-09-30T00:59:36.921Z,5.00
2018-09-30T01:02:05.416Z,5.07
2018-09-30T01:04:34.214Z,5.07
2018-09-30T01:07:02.628Z,4.87
2018-09-30T01:09:31.024Z,5.43
2018-09-30T01:11:59.436Z,4.50
2018-09-30T01:14:27.661Z,4.77
2018-09-30T01:16:55.882Z,4.57
2018-09-30T01:19:24.120Z,5.53
2018-09-30T01:21:52.379Z,5.53
2018-09-30T01:24:20.659Z,5.90
2018-09-30T01:26:48.995Z,4.70
2018-09-30T01:29:17.555Z,5.10
2018-09-30T01:31:45.874Z,5.27
2018-09-30T01:34:14.090Z,5.33
2018-09-30T01:36:42.394Z,5.30
2018-09-30T01:39:10.754Z,4.50
2018-09-30T01:41:39.139Z,4.93
2018-09-30T01:44:07.487Z,4.60
2018-09-30T01:46:36.433Z,4.80
2018-09-30T01:49:04.629Z,4.40
2018-09-30T01:51:32.889Z,4.17
2018-09-30T01:54:01.199Z,4.30
2018-09-30T01:56:29.521Z,4.30
2018-09-30T01:58:57.764Z,3.77
2018-09-30T02:01:26.254Z,3.83
2018-09-30T02:03:54.523Z,3.70
2018-09-30T02:06:23.097Z,4.00
2018-09-30T02:08:51.686Z,4.07
2018-09-30T02:11:20.140Z,3.90
2018-09-30T02:13:48.481Z,4.20
2018-09-30T02:16:16.732Z,3.67
2018-09-30T02:18:45.177Z,4.03
2018-09-30T02:21:13.651Z,4.17
2018-09-30T02:23:41.988Z,4.93
2018-09-30T02:26:10.194Z,4.37
2018-09-30T02:28:38.524Z,3.93
2018-09-30T02:31:07.489Z,4.03
2018-09-30T02:33:35.883Z,4.30
2018-09-30T02:36:04.087Z,5.07
2018-09-30T02:38:32.378Z,4.07
2018-09-30T02:41:00.637Z,4.03
2018-09-30T02:43:28.816Z,4.30
2018-09-30T02:45:57.197Z,3.77
2018-09-30T02:48:25.506Z,3.80
2018-09-30T02:50:53.743Z,3.93
2018-09-30T02:53:22.261Z,3.50
2018-09-30T02:55:51.089Z,4.30
2018-09-30T02:58:19.586Z,3.53
2018-09-30T03:00:47.967Z,3.93
2018-09-30T03:03:16.243Z,3.87
2018-09-30T03:05:44.570Z,4.60
2018-09-30T03:08:18.326Z,4.10
2018-09-30T03:10:46.687Z,3.50
2018-09-30T03:13:14.992Z,3.43
2018-09-30T03:15:43.252Z,3.67
2018-09-30T03:18:11.748Z,3.63
2018-09-30T03:20:40.091Z,3.60
2018-09-30T03:23:08.343Z,3.47
2018-09-30T03:25:36.616Z,3.57
2018-09-30T03:28:05.002Z,4.37
2018-09-30T03:30:33.322Z,3.60
2018-09-30T03:33:01.761Z,3.60
2018-09-30T03:35:29.936Z,3.40
2018-09-30T03:37:58.200Z,3.53
2018-09-30T03:40:26.607Z,3.40
2018-09-30T03:42:54.965Z,3.63
2018-09-30T03:45:23.257Z,3.93
2018-09-30T03:47:51.783Z,3.37
2018-09-30T03:50:19.998Z,3.87
2018-09-30T03:52:48.454Z,3.70
2018-09-30T03:55:16.816Z,3.17
2018-09-30T03:57:45.092Z,3.23
2018-09-30T04:00:13.529Z,3.60
2018-09-30T04:02:42.204Z,3.40
2018-09-30T04:05:10.419Z,3.80
2018-09-30T04:07:38.745Z,3.70
2018-09-30T04:10:07.210Z,3.50
2018-09-30T04:12:35.486Z,3.20
2018-09-30T04:15:03.836Z,3.40
2018-09-30T04:17:33.151Z,3.67
2018-09-30T04:20:01.651Z,3.47
2018-09-30T04:22:30.055Z,4.17
2018-09-30T04:24:58.676Z,3.63
2018-09-30T04:27:27.057Z,3.17
2018-09-30T04:29:55.410Z,3.60
2018-09-30T04:32:23.953Z,4.23
2018-09-30T04:34:52.482Z,4.37
2018-09-30T04:37:21.498Z,4.13
2018-09-30T04:39:50.016Z,4.10
2018-09-30T04:42:18.595Z,5.10
2018-09-30T04:44:46.926Z,8.10
2018-09-30T04:47:15.374Z,8.73
2018-09-30T04:49:44.326Z,8.37
2018-09-30T04:52:12.827Z,13.30
2018-09-30T04:54:41.465Z,15.90
2018-09-30T04:57:09.805Z,5.27
2018-09-30T04:59:38.093Z,4.43
2018-09-30T05:02:06.680Z,3.97
2018-09-30T05:04:34.938Z,4.03
2018-09-30T05:07:04.925Z,3.50
2018-09-30T05:09:33.322Z,4.07
2018-09-30T05:12:01.550Z,3.63
2018-09-30T05:14:30.393Z,4.20
2018-09-30T05:16:58.813Z,3.90
2018-09-30T05:19:27.114Z,3.90
2018-09-30T05:21:55.639Z,4.23
2018-09-30T05:24:23.914Z,4.30
2018-09-30T05:26:52.292Z,4.27
2018-09-30T05:29:20.583Z,5.00
2018-09-30T05:31:49.084Z,4.43
2018-09-30T05:34:17.324Z,3.97
2018-09-30T05:36:52.132Z,3.97
2018-09-30T05:39:20.540Z,4.13
2018-09-30T05:41:48.824Z,4.40
2018-09-30T05:44:17.688Z,5.07
2018-09-30T05:46:45.986Z,4.60
2018-09-30T05:49:14.541Z,3.93
2018-09-30T05:51:43.428Z,4.27
2018-09-30T05:54:11.770Z,4.40
2018-09-30T05:56:40.258Z,5.63
2018-09-30T05:59:08.538Z,4.60
2018-09-30T06:01:37.059Z,4.10
2018-09-30T06:04:05.855Z,4.67
2018-09-30T06:06:33.927Z,4.20
2018-09-30T06:09:05.124Z,4.40
2018-09-30T06:11:33.736Z,4.70
2018-09-30T06:14:02.350Z,4.60
2018-09-30T06:16:30.564Z,5.33
2018-09-30T06:18:58.952Z,4.53
2018-09-30T06:21:27.229Z,4.63
2018-09-30T06:23:55.640Z,4.90
2018-09-30T06:26:23.989Z,4.60
2018-09-30T06:28:52.250Z,4.50
2018-09-30T06:31:20.512Z,4.67
2018-09-30T06:33:48.782Z,4.63
2018-09-30T06:36:17.063Z,4.17
2018-09-30T06:38:45.465Z,4.77
2018-09-30T06:41:14.190Z,5.10
2018-09-30T06:43:42.560Z,4.73
2018-09-30T06:46:10.850Z,4.87
2018-09-30T06:48:39.294Z,4.90
2018-09-30T06:51:07.638Z,5.20
2018-09-30T06:53:36.059Z,5.10
2018-09-30T06:56:05.191Z,5.97
2018-09-30T06:58:33.464Z,4.37
2018-09-30T07:01:02.020Z,4.80
2018-09-30T07:03:30.393Z,4.83
2018-09-30T07:05:58.914Z,5.57
2018-09-30T07:08:27.292Z,5.80
2018-09-30T07:10:55.805Z,5.50
2018-09-30T07:13:24.422Z,4.90
2018-09-30T07:15:53.035Z,4.87
2018-09-30T07:18:21.453Z,5.20
2018-09-30T07:20:49.878Z,5.63
2018-09-30T07:23:18.383Z,4.60
2018-09-30T07:25:46.745Z,5.60
2018-09-30T07:28:15.233Z,4.77
2018-09-30T07:30:43.555Z,4.90
2018-09-30T07:33:11.920Z,5.40
2018-09-30T07:35:40.351Z,5.10
2018-09-30T07:38:08.864Z,4.90
2018-09-30T07:40:37.613Z,5.27
2018-09-30T07:43:06.130Z,4.80
2018-09-30T07:45:34.657Z,5.60
2018-09-30T07:48:03.139Z,5.63
2018-09-30T07:50:31.459Z,5.67
2018-09-30T07:52:59.707Z,5.30
2018-09-30T07:55:28.252Z,4.93
2018-09-30T07:57:56.641Z,4.80
2018-09-30T08:00:24.880Z,4.40
2018-09-30T08:02:53.453Z,4.73
2018-09-30T08:05:22.049Z,4.87
2018-09-30T08:07:50.376Z,5.43
2018-09-30T08:10:18.755Z,8.87
2018-09-30T08:12:47.151Z,11.67
2018-09-30T08:15:15.577Z,11.33
2018-09-30T08:17:43.985Z,15.73
2018-09-30T08:20:12.386Z,6.83
2018-09-30T08:22:40.708Z,5.50
2018-09-30T08:25:13.383Z,4.80
2018-09-30T08:27:41.953Z,4.43
2018-09-30T08:32:45.274Z,3.80
2018-09-30T08:35:13.620Z,4.50
2018-09-30T08:37:47.364Z,4.40
2018-09-30T08:40:19.981Z,3.90
2018-09-30T08:42:48.390Z,4.60
2018-09-30T08:45:16.924Z,4.10
2018-09-30T08:47:45.489Z,3.80
2018-09-30T08:50:13.818Z,3.90
2018-09-30T08:52:42.218Z,3.80
2018-09-30T08:55:11.324Z,3.77
2018-09-30T08:57:39.707Z,3.70
2018-09-30T09:00:08.580Z,3.83
2018-09-30T09:02:43.657Z,4.37
2018-09-30T09:05:12.144Z,3.50
2018-09-30T09:07:40.578Z,3.80
2018-09-30T09:10:09.410Z,3.50
2018-09-30T09:12:37.830Z,3.70
2018-09-30T09:15:06.519Z,6.27
2018-09-30T09:17:35.143Z,9.53
2018-09-30T09:20:03.654Z,9.17
2018-09-30T09:22:32.427Z,6.43
2018-09-30T09:25:00.911Z,5.13
2018-09-30T09:27:29.944Z,7.47
2018-09-30T09:29:59.603Z,5.33
2018-09-30T09:32:27.849Z,3.93
2018-09-30T09:34:56.851Z,3.73
2018-09-30T09:37:25.208Z,3.47
2018-09-30T09:39:53.567Z,3.10
2018-09-30T09:42:22.035Z,3.40
2018-09-30T09:44:50.388Z,3.30
2018-09-30T09:47:23.481Z,3.70
2018-09-30T09:49:51.996Z,3.43
2018-09-30T09:52:20.581Z,2.80
2018-09-30T09:54:48.875Z,3.27
2018-09-30T09:57:17.396Z,2.77
2018-09-30T09:59:46.008Z,2.87
2018-09-30T10:02:14.582Z,3.37
2018-09-30T10:04:43.275Z,3.10
2018-09-30T10:07:13.243Z,5.83
2018-09-30T10:09:41.825Z,6.77
2018-09-30T10:12:10.296Z,11.13
2018-09-30T10:14:38.688Z,8.10
2018-09-30T10:17:07.409Z,12.60
2018-09-30T10:19:35.892Z,11.57
2018-09-30T10:22:05.591Z,5.07
2018-09-30T10:24:34.328Z,4.60
2018-09-30T10:27:02.861Z,4.50
2018-09-30T10:29:34.125Z,3.80
2018-09-30T10:32:02.813Z,3.53
2018-09-30T10:34:31.248Z,2.90
2018-09-30T10:36:59.675Z,3.10
2018-09-30T10:40:04.939Z,2.80
2018-09-30T10:42:33.911Z,2.83
2018-09-30T10:45:02.386Z,2.90
2018-09-30T10:47:30.774Z,3.03
2018-09-30T10:49:59.586Z,3.33
2018-09-30T10:52:28.025Z,3.10
2018-09-30T10:54:59.256Z,3.13
2018-09-30T10:57:27.881Z,3.20
2018-09-30T10:59:56.707Z,3.07
2018-09-30T11:05:30.335Z,15.53
2018-09-30T11:07:59.471Z,6.13
2018-09-30T11:10:37.614Z,4.93
2018-09-30T11:13:06.205Z,5.33
2018-09-30T11:15:34.887Z,3.63
2018-09-30T11:18:03.408Z,3.47
2018-09-30T11:20:32.071Z,3.40
2018-09-30T11:23:00.475Z,6.87
2018-09-30T11:25:29.066Z,6.97
2018-09-30T11:27:58.196Z,3.77
2018-09-30T11:30:26.729Z,2.70
2018-09-30T11:32:55.073Z,3.00
2018-09-30T11:35:24.547Z,3.20
2018-09-30T11:37:53.599Z,2.90
2018-09-30T11:40:22.178Z,4.50
2018-09-30T11:42:50.737Z,4.20
2018-09-30T11:45:19.650Z,3.30
2018-09-30T11:47:48.469Z,6.80
2018-09-30T11:50:17.215Z,10.77
2018-09-30T11:52:45.779Z,9.47
2018-09-30T11:55:14.312Z,3.07
2018-09-30T11:57:43.771Z,4.97
2018-09-30T12:00:12.443Z,5.47
2018-09-30T12:02:40.961Z,4.10
2018-09-30T12:05:09.993Z,3.03
2018-09-30T12:07:38.727Z,2.53
2018-09-30T12:10:08.266Z,3.07
2018-09-30T12:12:36.666Z,2.30
2018-09-30T12:15:05.216Z,2.80
2018-09-30T12:17:34.691Z,2.50
2018-09-30T12:20:03.274Z,2.27
2018-09-30T12:22:31.658Z,2.60
2018-09-30T12:25:00.018Z,2.43
2018-09-30T12:27:28.815Z,2.30
2018-09-30T12:29:57.655Z,2.17
2018-09-30T12:32:26.134Z,2.70
2018-09-30T12:34:54.635Z,2.30
2018-09-30T12:37:23.375Z,2.40
2018-09-30T12:39:51.990Z,3.40
2018-09-30T12:42:20.485Z,3.10
2018-09-30T12:44:48.958Z,6.63
2018-09-30T12:47:17.747Z,5.13
2018-09-30T12:49:46.279Z,2.87
2018-09-30T12:52:15.069Z,2.40
2018-09-30T12:54:44.892Z,2.50
2018-09-30T12:57:13.597Z,2.50
2018-09-30T12:59:42.032Z,6.33
2018-09-30T13:02:14.690Z,8.17
2018-09-30T13:04:43.364Z,6.53
2018-09-30T13:07:12.018Z,4.97
2018-09-30T13:09:40.413Z,8.33
2018-09-30T13:12:08.888Z,5.50
2018-09-30T13:14:37.795Z,4.37
2018-09-30T13:17:06.376Z,5.63
2018-09-30T13:19:34.695Z,4.07
2018-09-30T13:22:03.281Z,2.40
2018-09-30T13:24:32.416Z,2.40
2018-09-30T13:27:02.509Z,2.20
2018-09-30T13:29:31.367Z,3.30
2018-09-30T13:31:59.883Z,5.47
2018-09-30T13:34:28.277Z,6.30
2018-09-30T13:36:56.767Z,5.30
2018-09-30T13:39:25.583Z,4.70
2018-09-30T13:41:54.084Z,3.43
2018-09-30T13:44:22.632Z,3.30
2018-09-30T13:46:51.377Z,3.07
2018-09-30T13:49:20.002Z,3.13
2018-09-30T13:51:53.292Z,3.00
2018-09-30T13:54:21.943Z,3.57
2018-09-30T13:56:50.604Z,2.73
2018-09-30T13:59:19.425Z,2.80
2018-09-30T14:01:47.825Z,2.90
2018-09-30T14:04:16.388Z,3.10
2018-09-30T14:06:44.833Z,2.10
2018-09-30T14:09:13.769Z,2.30
2018-09-30T14:11:42.313Z,2.50
2018-09-30T14:14:11.570Z,2.40
2018-09-30T14:16:40.133Z,2.30
2018-09-30T14:19:08.977Z,2.30
2018-09-30T14:21:37.634Z,2.10
2018-09-30T14:24:06.661Z,2.50
2018-09-30T14:26:34.973Z,3.00
2018-09-30T14:29:04.332Z,2.67
2018-09-30T14:31:32.818Z,2.80
2018-09-30T14:34:01.879Z,3.23
2018-09-30T14:36:30.775Z,3.27
2018-09-30T14:38:59.863Z,4.10
2018-09-30T14:41:28.438Z,4.80
2018-09-30T14:43:57.031Z,3.20
2018-09-30T14:46:28.889Z,3.33
2018-09-30T14:48:57.364Z,2.50
2018-09-30T14:51:26.079Z,2.60
2018-09-30T14:53:54.540Z,2.30
2018-09-30T14:56:22.874Z,2.40
2018-09-30T14:58:51.234Z,3.03
2018-09-30T15:01:19.672Z,2.40
2018-09-30T15:03:48.852Z,2.93
2018-09-30T15:06:17.911Z,3.13
2018-09-30T15:08:46.433Z,2.07
2018-09-30T15:11:14.862Z,2.27
2018-09-30T15:13:43.634Z,2.20
2018-09-30T15:16:12.159Z,2.50
2018-09-30T15:18:40.524Z,2.30
2018-09-30T15:21:09.245Z,2.87
2018-09-30T15:23:39.169Z,2.90
2018-09-30T15:26:07.467Z,2.53
2018-09-30T15:28:36.015Z,2.50
2018-09-30T15:31:04.404Z,2.80
2018-09-30T15:33:32.770Z,2.73
2018-09-30T15:36:01.362Z,3.20
2018-09-30T15:38:30.292Z,3.00
2018-09-30T15:40:58.990Z,2.60
2018-09-30T15:43:28.059Z,2.60
2018-09-30T15:45:56.425Z,2.33
2018-09-30T15:48:25.726Z,2.40
2018-09-30T15:50:53.993Z,2.53
2018-09-30T15:53:22.572Z,3.30
2018-09-30T15:55:50.849Z,7.33
2018-09-30T15:58:19.757Z,5.63
2018-09-30T16:00:48.203Z,3.17
2018-09-30T16:03:17.131Z,3.27
2018-09-30T16:05:45.701Z,2.93
2018-09-30T16:08:14.139Z,2.77
2018-09-30T16:10:42.593Z,3.00
2018-09-30T16:13:11.114Z,3.10
2018-09-30T16:15:39.426Z,3.00
2018-09-30T16:18:08.342Z,3.00
2018-09-30T16:20:36.831Z,3.20
2018-09-30T16:23:05.453Z,2.80
2018-09-30T16:25:33.931Z,2.60
2018-09-30T16:28:03.006Z,2.57
2018-09-30T16:30:31.673Z,3.43
2018-09-30T16:33:00.131Z,4.87
2018-09-30T16:35:28.650Z,4.47
2018-09-30T16:37:57.253Z,5.60
2018-09-30T16:40:25.789Z,4.97
2018-09-30T16:42:54.118Z,4.57
2018-09-30T16:45:22.669Z,4.30
2018-09-30T16:47:51.150Z,3.97
2018-09-30T16:50:19.558Z,3.77
2018-09-30T16:52:48.823Z,4.00
2018-09-30T16:55:17.397Z,3.50
2018-09-30T16:57:46.133Z,3.80
2018-09-30T17:00:14.519Z,4.17
2018-09-30T17:02:42.793Z,4.10
2018-09-30T17:05:11.280Z,4.23
2018-09-30T17:07:39.714Z,4.57
2018-09-30T17:10:08.472Z,3.93
2018-09-30T17:12:36.830Z,4.13
2018-09-30T17:15:07.088Z,4.27
2018-09-30T17:17:35.714Z,3.93
2018-09-30T17:20:04.465Z,4.13
2018-09-30T17:22:32.943Z,4.43
2018-09-30T17:25:01.660Z,4.43
2018-09-30T17:27:30.208Z,4.00
2018-09-30T17:29:58.636Z,4.37
2018-09-30T17:32:27.522Z,4.10
2018-09-30T17:34:56.052Z,4.83
2018-09-30T17:37:27.813Z,5.13
2018-09-30T17:39:56.506Z,8.97
2018-09-30T17:42:25.213Z,13.80
2018-09-30T17:44:53.684Z,9.40
2018-09-30T17:47:22.438Z,10.27
2018-09-30T17:49:51.454Z,31.63
2018-09-30T17:52:19.830Z,43.67
2018-09-30T17:54:48.298Z,20.17
2018-09-30T17:57:17.109Z,13.00
2018-09-30T17:59:45.560Z,16.73
2018-09-30T18:02:13.836Z,15.83
2018-09-30T18:04:42.339Z,21.87
2018-09-30T18:07:10.738Z,13.57
2018-09-30T18:09:40.220Z,12.37
2018-09-30T18:12:09.016Z,8.83
2018-09-30T18:14:38.062Z,8.83
2018-09-30T18:17:06.766Z,7.37
2018-09-30T18:19:35.056Z,7.50
2018-09-30T18:22:03.405Z,7.27
2018-09-30T18:24:31.988Z,7.10
2018-09-30T18:27:07.121Z,6.80
2018-09-30T18:29:35.629Z,7.07
2018-09-30T18:32:04.448Z,7.90
2018-09-30T18:34:32.944Z,10.20
2018-09-30T18:37:01.490Z,8.20
2018-09-30T18:39:29.809Z,8.23
2018-09-30T18:41:58.122Z,8.07
2018-09-30T18:44:26.443Z,7.80
2018-09-30T18:46:55.019Z,8.00
2018-09-30T18:49:23.548Z,6.93
2018-09-30T18:51:52.014Z,6.50
2018-09-30T18:54:21.144Z,6.50
2018-09-30T18:56:49.782Z,6.27
2018-09-30T18:59:18.170Z,6.40
2018-09-30T19:01:46.903Z,7.30
2018-09-30T19:04:15.287Z,13.23
2018-09-30T19:06:44.582Z,15.30
2018-09-30T19:09:13.755Z,13.00
2018-09-30T19:11:42.140Z,6.50
2018-09-30T19:14:10.596Z,14.30
2018-09-30T19:16:40.427Z,18.07
2018-09-30T19:19:08.981Z,20.03
2018-09-30T19:24:15.818Z,14.80
2018-09-30T19:26:44.594Z,13.10
2018-09-30T19:29:13.251Z,19.47
2018-09-30T19:31:41.658Z,18.17
2018-09-30T19:34:10.102Z,16.77
2018-09-30T19:36:38.723Z,12.47
2018-09-30T19:39:09.273Z,8.20
2018-09-30T19:41:37.982Z,6.07
2018-09-30T19:44:06.589Z,6.00
2018-09-30T19:46:35.114Z,6.03
2018-09-30T19:49:04.579Z,5.80
2018-09-30T19:51:32.916Z,5.90
2018-09-30T19:54:01.562Z,22.10
2018-09-30T19:56:29.982Z,15.57
2018-09-30T19:58:58.330Z,8.30
2018-09-30T20:01:26.777Z,5.50
2018-09-30T20:03:55.088Z,5.07
2018-09-30T20:06:23.667Z,5.37
2018-09-30T20:08:52.265Z,4.67
2018-09-30T20:11:20.823Z,5.23
2018-09-30T20:13:49.449Z,11.73
2018-09-30T20:16:17.798Z,13.80
2018-09-30T20:18:46.508Z,12.03
2018-09-30T20:21:14.785Z,8.27
2018-09-30T20:23:43.561Z,6.70
2018-09-30T20:26:11.865Z,6.03
2018-09-30T20:28:40.505Z,8.07
2018-09-30T20:31:08.885Z,10.30
2018-09-30T20:33:37.361Z,10.47
2018-09-30T20:36:05.879Z,8.40
2018-09-30T20:38:34.697Z,8.03
2018-09-30T20:41:03.545Z,7.03
2018-09-30T20:43:32.807Z,6.23
2018-09-30T20:46:01.368Z,5.63
2018-09-30T20:48:29.844Z,6.10
2018-09-30T20:50:58.252Z,6.20
2018-09-30T20:53:27.464Z,6.73
2018-09-30T20:55:56.531Z,6.97
2018-09-30T20:58:24.902Z,7.90
2018-09-30T21:00:54.455Z,7.90
2018-09-30T21:03:23.080Z,7.67
2018-09-30T21:06:14.465Z,7.57
2018-09-30T21:08:43.643Z,6.63
2018-09-30T21:11:11.942Z,7.13
2018-09-30T21:13:40.517Z,7.80
2018-09-30T21:16:09.079Z,7.33
2018-09-30T21:18:37.610Z,6.90
2018-09-30T21:21:06.024Z,10.27
2018-09-30T21:23:34.464Z,40.23
2018-09-30T21:26:02.776Z,20.40
2018-09-30T21:28:31.047Z,9.30
2018-09-30T21:30:59.305Z,8.87
2018-09-30T21:33:27.700Z,8.53
2018-09-30T21:35:56.079Z,9.07
2018-09-30T21:38:24.411Z,8.30
2018-09-30T21:40:52.764Z,7.37
2018-09-30T21:43:22.176Z,8.13
2018-09-30T21:45:50.494Z,8.33
2018-09-30T21:48:19.810Z,8.07
2018-09-30T21:50:48.147Z,7.37
2018-09-30T21:53:17.283Z,7.87
2018-09-30T21:55:45.689Z,7.67
2018-09-30T21:58:14.015Z,7.77
2018-09-30T22:00:43.489Z,7.97
2018-09-30T22:03:13.003Z,8.37
2018-09-30T22:05:41.314Z,7.03
2018-09-30T22:08:10.952Z,7.83
2018-09-30T22:10:40.593Z,8.13
2018-09-30T22:13:09.287Z,7.70
2018-09-30T22:15:37.593Z,7.83
2018-09-30T22:18:06.164Z,7.20
2018-09-30T22:20:34.553Z,7.67
2018-09-30T22:23:02.983Z,7.57
2018-09-30T22:25:31.257Z,7.40
2018-09-30T22:27:59.775Z,7.53
2018-09-30T22:30:28.065Z,7.20
2018-09-30T22:32:56.590Z,6.70
2018-09-30T22:35:25.002Z,7.20
2018-09-30T22:37:53.241Z,7.63
2018-09-30T22:40:21.582Z,7.60
2018-09-30T22:42:49.826Z,7.73
2018-09-30T22:45:18.235Z,7.27
2018-09-30T22:47:46.505Z,7.17
2018-09-30T22:50:15.686Z,7.77
2018-09-30T22:52:44.029Z,7.40
2018-09-30T22:55:12.317Z,8.03
2018-09-30T22:57:40.677Z,8.10
2018-09-30T23:00:09.034Z,7.83
2018-09-30T23:02:37.369Z,7.83
2018-09-30T23:05:06.819Z,8.60
2018-09-30T23:07:35.237Z,9.00
2018-09-30T23:10:04.423Z,7.93
2018-09-30T23:12:32.777Z,7.93
2018-09-30T23:15:01.062Z,7.73
2018-09-30T23:17:29.473Z,8.07
2018-09-30T23:19:57.773Z,7.03
2018-09-30T23:22:26.028Z,7.57
2018-09-30T23:24:54.396Z,7.70
2018-09-30T23:27:23.099Z,7.23
2018-09-30T23:29:52.649Z,6.60
2018-09-30T23:32:20.902Z,6.37
2018-09-30T23:34:49.134Z,6.80
2018-09-30T23:37:17.384Z,6.40
2018-09-30T23:39:45.583Z,6.10
2018-09-30T23:42:13.784Z,6.63
2018-09-30T23:44:42.411Z,5.90
2018-09-30T23:47:10.694Z,5.83
2018-09-30T23:49:39.693Z,5.63
2018-09-30T23:52:07.947Z,6.10
2018-09-30T23:54:36.131Z,6.43
2018-09-30T23:57:04.354Z,6.03
2018-09-30T23:59:32.676Z,5.57
